createdAt,value
2019-04-04T00:02:17.073Z,6.80
2019-04-04T00:04:48.017Z,7.57
2019-04-04T00:07:17.381Z,5.47
2019-04-04T00:09:47.206Z,7.47
2019-04-04T00:12:16.551Z,7.33
2019-04-04T00:14:46.651Z,7.10
2019-04-04T00:17:15.997Z,6.27
2019-04-04T00:19:45.344Z,7.63
2019-04-04T00:22:14.767Z,6.60
2019-04-04T00:24:44.133Z,7.30
2019-04-04T00:27:13.864Z,6.87
2019-04-04T00:29:43.286Z,7.03
2019-04-04T00:32:12.640Z,6.23
2019-04-04T00:34:42.001Z,7.03
2019-04-04T00:37:11.732Z,6.20
2019-04-04T00:39:41.119Z,5.97
2019-04-04T00:42:10.427Z,7.60
2019-04-04T00:44:39.784Z,7.07
2019-04-04T00:47:09.196Z,7.80
2019-04-04T00:49:38.554Z,6.40
2019-04-04T00:52:10.049Z,6.63
2019-04-04T00:54:39.001Z,7.83
2019-04-04T00:57:08.535Z,6.13
2019-04-04T00:59:38.559Z,6.57
2019-04-04T01:02:07.900Z,7.78
2019-04-04T01:04:37.247Z,7.20
2019-04-04T01:07:06.609Z,6.23
2019-04-04T01:09:35.956Z,7.90
2019-04-04T01:12:05.955Z,7.20
2019-04-04T01:14:35.297Z,7.63
2019-04-04T01:17:04.861Z,8.03
2019-04-04T01:19:34.202Z,7.67
2019-04-04T01:22:03.738Z,7.37
2019-04-04T01:24:33.151Z,8.53
2019-04-04T01:27:04.124Z,7.67
2019-04-04T01:29:33.591Z,6.77
2019-04-04T01:32:02.979Z,5.97
2019-04-04T01:34:32.541Z,5.60
2019-04-04T01:37:02.052Z,6.40
2019-04-04T01:39:32.018Z,6.73
2019-04-04T01:42:01.409Z,8.13
2019-04-04T01:44:31.155Z,10.27
2019-04-04T01:47:00.511Z,8.60
2019-04-04T01:49:29.881Z,9.83
2019-04-04T01:51:59.275Z,7.67
2019-04-04T02:14:54.729Z,7.70
2019-04-04T02:17:24.093Z,6.33
2019-04-04T02:19:55.656Z,7.07
2019-04-04T02:22:24.542Z,7.20
2019-04-04T02:24:53.891Z,7.70
2019-04-04T02:27:23.245Z,6.97
2019-04-04T02:29:52.701Z,5.37
2019-04-04T02:32:26.623Z,8.07
2019-04-04T02:34:54.819Z,8.00
2019-04-04T02:37:24.250Z,7.67
2019-04-04T02:39:53.580Z,9.57
2019-04-04T02:42:22.927Z,8.30
2019-04-04T02:44:52.368Z,10.23
2019-04-04T02:47:21.795Z,8.23
2019-04-04T02:49:51.148Z,9.03
2019-04-04T02:52:20.505Z,9.37
2019-04-04T02:54:49.870Z,6.73
2019-04-04T02:57:19.224Z,10.07
2019-04-04T02:59:52.829Z,10.37
2019-04-04T03:02:21.903Z,10.93
2019-04-04T03:04:51.268Z,10.07
2019-04-04T03:07:20.724Z,10.77
2019-04-04T03:09:50.152Z,11.17
2019-04-04T03:12:19.565Z,17.13
2019-04-04T03:14:50.754Z,14.50
2019-04-04T03:17:21.176Z,11.30
2019-04-04T03:19:51.186Z,10.23
2019-04-04T03:22:20.619Z,10.10
2019-04-04T03:24:50.047Z,13.10
2019-04-04T03:27:19.402Z,13.73
2019-04-04T03:29:48.788Z,10.43
2019-04-04T03:32:18.145Z,11.77
2019-04-04T03:34:49.676Z,12.20
2019-04-04T03:37:18.598Z,11.83
2019-04-04T03:39:51.962Z,10.30
2019-04-04T03:42:21.993Z,10.50
2019-04-04T03:44:53.435Z,10.57
2019-04-04T03:47:22.838Z,8.83
2019-04-04T03:49:56.596Z,12.00
2019-04-04T03:52:23.309Z,10.27
2019-04-04T03:54:56.554Z,11.17
2019-04-04T03:57:26.080Z,7.90
2019-04-04T03:59:55.500Z,11.27
2019-04-04T04:02:24.936Z,11.57
2019-04-04T04:04:54.292Z,9.90
2019-04-04T04:07:23.652Z,12.03
2019-04-04T04:09:53.004Z,11.43
2019-04-04T04:12:22.373Z,13.47
2019-04-04T04:14:54.893Z,11.30
2019-04-04T04:17:22.797Z,12.88
2019-04-04T04:19:55.887Z,11.30
2019-04-04T04:22:25.843Z,12.10
2019-04-04T04:24:55.185Z,7.90
2019-04-04T04:27:24.530Z,8.70
2019-04-04T04:29:53.901Z,15.80
2019-04-04T04:32:23.258Z,10.60
2019-04-04T04:34:52.602Z,8.87
2019-04-04T04:37:22.003Z,9.80
2019-04-04T04:39:51.339Z,10.20
2019-04-04T04:42:21.298Z,11.05
2019-04-04T04:44:52.818Z,11.97
2019-04-04T04:47:23.936Z,8.10
2019-04-04T04:49:55.309Z,11.67
2019-04-04T04:52:24.341Z,15.70
2019-04-04T04:54:54.714Z,14.17
2019-04-04T04:57:29.824Z,11.38
2019-04-04T04:59:55.902Z,11.10
2019-04-04T05:02:25.263Z,11.97
2019-04-04T05:04:54.625Z,10.80
2019-04-04T05:07:24.012Z,10.60
2019-04-04T05:09:53.357Z,12.13
2019-04-04T05:12:22.729Z,12.57
2019-04-04T05:14:52.093Z,14.50
2019-04-04T05:17:21.448Z,14.57
2019-04-04T05:19:50.818Z,13.17
2019-04-04T05:22:24.372Z,15.63
2019-04-04T05:25:07.422Z,14.20
2019-04-04T05:27:24.803Z,12.88
2019-04-04T05:29:54.182Z,12.93
2019-04-04T05:32:23.535Z,12.40
2019-04-04T05:34:55.588Z,13.30
2019-04-04T05:37:27.534Z,16.07
2019-04-04T05:39:56.408Z,14.43
2019-04-04T05:42:25.770Z,10.72
2019-04-04T05:44:55.138Z,17.53
2019-04-04T05:47:27.491Z,15.60
2019-04-04T05:49:56.820Z,14.03
2019-04-04T05:52:26.698Z,16.03
2019-04-04T05:54:56.031Z,17.93
2019-04-04T05:57:25.377Z,19.77
2019-04-04T05:59:55.956Z,16.80
2019-04-04T06:02:25.495Z,16.47
2019-04-04T06:04:55.401Z,17.53
2019-04-04T06:07:25.027Z,14.87
2019-04-04T06:09:54.374Z,13.10
2019-04-04T06:12:26.707Z,19.35
2019-04-04T06:14:56.435Z,17.43
2019-04-04T06:17:27.063Z,17.03
2019-04-04T06:19:56.450Z,18.20
2019-04-04T06:22:25.823Z,19.43
2019-04-04T06:24:59.118Z,15.97
2019-04-04T06:27:26.585Z,18.17
2019-04-04T06:29:55.944Z,15.43
2019-04-04T06:32:25.301Z,20.20
2019-04-04T06:34:56.701Z,14.83
2019-04-04T06:37:26.468Z,18.33
2019-04-04T06:39:58.594Z,17.43
2019-04-04T06:42:26.912Z,16.90
2019-04-04T06:44:56.276Z,16.00
2019-04-04T06:47:26.338Z,18.10
2019-04-04T06:49:55.671Z,17.27
2019-04-04T06:52:25.049Z,16.67
2019-04-04T06:54:55.285Z,14.77
2019-04-04T06:57:25.492Z,13.17
2019-04-04T06:59:55.584Z,20.03
2019-04-04T07:02:24.938Z,14.07
2019-04-04T07:04:54.283Z,18.50
2019-04-04T07:07:23.720Z,16.73
2019-04-04T07:09:53.078Z,12.57
2019-04-04T07:12:28.089Z,11.87
2019-04-04T07:14:53.522Z,12.73
2019-04-04T07:17:22.948Z,14.67
2019-04-04T07:19:52.297Z,9.13
2019-04-04T07:22:24.746Z,9.37
2019-04-04T07:24:53.666Z,9.03
2019-04-04T07:27:23.347Z,10.10
2019-04-04T07:29:52.717Z,10.60
2019-04-04T07:32:22.071Z,10.80
2019-04-04T07:34:51.428Z,10.60
2019-04-04T07:37:22.167Z,15.27
2019-04-04T07:39:54.875Z,11.53
2019-04-04T07:42:24.244Z,11.07
2019-04-04T07:44:54.750Z,8.87
2019-04-04T07:47:24.419Z,7.43
2019-04-04T07:49:55.028Z,6.67
2019-04-04T07:52:24.822Z,7.40
2019-04-04T07:54:54.163Z,8.33
2019-04-04T07:57:23.530Z,6.97
2019-04-04T07:59:52.895Z,7.73
2019-04-04T08:02:22.234Z,8.00
2019-04-04T08:04:53.182Z,9.77
2019-04-04T08:07:22.557Z,8.57
2019-04-04T08:09:51.903Z,9.10
2019-04-04T08:12:21.241Z,8.47
2019-04-04T08:14:50.596Z,7.23
2019-04-04T08:17:21.663Z,8.37
2019-04-04T08:19:59.463Z,7.57
2019-04-04T08:22:22.299Z,8.40
2019-04-04T08:24:51.626Z,7.63
2019-04-04T08:27:20.987Z,7.73
2019-04-04T08:29:53.886Z,6.60
2019-04-04T08:32:23.242Z,10.03
2019-04-04T08:34:52.574Z,8.00
2019-04-04T08:37:21.934Z,8.27
2019-04-04T08:39:51.281Z,7.73
2019-04-04T08:42:23.055Z,7.70
2019-04-04T08:44:52.426Z,8.37
2019-04-04T08:47:21.844Z,7.63
2019-04-04T08:49:51.183Z,8.60
2019-04-04T08:52:21.105Z,9.03
2019-04-04T08:54:53.140Z,7.30
2019-04-04T08:57:22.476Z,8.63
2019-04-04T08:59:51.866Z,7.03
2019-04-04T09:02:22.092Z,8.10
2019-04-04T09:04:51.429Z,7.63
2019-04-04T09:07:20.794Z,9.73
2019-04-04T09:09:50.256Z,8.07
2019-04-04T09:12:19.662Z,8.93
2019-04-04T09:14:50.065Z,8.40
2019-04-04T09:17:19.419Z,10.07
2019-04-04T09:19:50.257Z,8.53
2019-04-04T09:22:19.517Z,8.47
2019-04-04T09:24:48.860Z,7.97
2019-04-04T09:27:18.209Z,7.63
2019-04-04T09:29:47.581Z,10.13
2019-04-04T09:32:18.659Z,8.37
2019-04-04T09:34:47.996Z,7.60
2019-04-04T09:37:18.009Z,7.80
2019-04-04T09:39:47.353Z,8.27
2019-04-04T09:42:16.715Z,8.60
2019-04-04T09:44:46.086Z,7.33
2019-04-04T09:47:15.434Z,8.27
2019-04-04T09:49:44.777Z,7.50
2019-04-04T09:52:14.166Z,8.97
2019-04-04T09:54:43.524Z,6.57
2019-04-04T09:57:12.885Z,7.97
2019-04-04T09:59:42.333Z,9.13
2019-04-04T10:02:11.686Z,7.23
2019-04-04T10:04:41.028Z,7.77
2019-04-04T10:07:10.486Z,7.03
2019-04-04T10:09:39.834Z,8.87
2019-04-04T10:12:09.186Z,5.77
2019-04-04T10:14:38.734Z,6.23
2019-04-04T10:17:08.085Z,8.07
2019-04-04T10:19:37.448Z,6.50
2019-04-04T10:22:07.226Z,7.28
2019-04-04T10:24:36.573Z,7.03
2019-04-04T10:27:06.001Z,6.67
2019-04-04T10:29:35.372Z,6.80
2019-04-04T10:32:04.873Z,7.53
2019-04-04T10:34:34.790Z,6.57
2019-04-04T10:37:04.252Z,6.50
2019-04-04T10:39:33.602Z,6.63
2019-04-04T10:42:02.965Z,12.17
2019-04-04T10:44:32.712Z,7.03
2019-04-04T10:47:02.074Z,11.70
2019-04-04T10:49:31.408Z,7.27
2019-04-04T10:52:00.797Z,6.45
2019-04-04T10:54:30.133Z,7.77
2019-04-04T10:56:59.493Z,6.70
2019-04-04T10:59:28.856Z,5.70
2019-04-04T11:02:00.721Z,6.00
2019-04-04T11:04:29.363Z,4.93
2019-04-04T11:06:58.746Z,6.60
2019-04-04T11:09:36.343Z,6.20
2019-04-04T11:11:59.250Z,6.07
2019-04-04T11:14:31.299Z,5.80
2019-04-04T11:17:00.641Z,4.73
2019-04-04T11:19:31.471Z,4.80
2019-04-04T11:22:01.511Z,4.97
2019-04-04T11:24:30.862Z,11.63
2019-04-04T11:27:00.539Z,4.80
2019-04-04T11:29:29.922Z,4.97
2019-04-04T11:31:59.253Z,5.53
2019-04-04T11:34:28.606Z,5.03
2019-04-04T11:36:59.073Z,4.20
2019-04-04T11:39:28.430Z,4.00
2019-04-04T11:41:57.785Z,4.60
2019-04-04T11:44:27.537Z,3.90
2019-04-04T11:46:56.889Z,5.17
2019-04-04T11:49:26.224Z,4.40
2019-04-04T11:51:55.596Z,3.50
2019-04-04T11:54:24.947Z,5.27
2019-04-04T11:56:54.301Z,4.40
2019-04-04T11:59:23.681Z,4.97
2019-04-04T12:01:53.610Z,7.17
2019-04-04T12:04:23.619Z,4.90
2019-04-04T12:06:53.372Z,5.37
2019-04-04T12:09:22.719Z,5.33
2019-04-04T12:11:52.068Z,7.27
2019-04-04T12:14:21.429Z,5.03
2019-04-04T12:16:50.792Z,5.43
2019-04-04T12:19:20.147Z,5.07
2019-04-04T12:21:49.558Z,4.87
2019-04-04T12:24:18.914Z,4.80
2019-04-04T12:26:48.268Z,5.27
2019-04-04T12:29:17.939Z,6.50
2019-04-04T12:31:47.297Z,6.83
2019-04-04T12:34:16.696Z,4.90
2019-04-04T12:36:46.030Z,6.20
2019-04-04T12:39:15.778Z,6.23
2019-04-04T12:41:45.127Z,32.90
2019-04-04T12:44:14.500Z,6.07
2019-04-04T12:46:43.918Z,10.80
2019-04-04T12:49:13.268Z,5.87
2019-04-04T12:51:43.021Z,6.27
2019-04-04T12:54:12.398Z,11.07
2019-04-04T12:56:41.735Z,6.20
2019-04-04T12:59:11.102Z,8.73
2019-04-04T13:01:40.457Z,6.17
2019-04-04T13:04:09.808Z,5.07
2019-04-04T13:06:39.176Z,4.50
2019-04-04T13:09:09.155Z,5.53
2019-04-04T13:11:38.545Z,5.40
2019-04-04T13:14:08.006Z,5.77
2019-04-04T13:16:37.359Z,5.47
2019-04-04T13:19:06.702Z,5.60
2019-04-04T13:21:36.060Z,5.73
2019-04-04T13:24:05.569Z,5.80
2019-04-04T13:26:34.940Z,11.20
2019-04-04T13:29:04.391Z,5.47
2019-04-04T13:31:33.746Z,6.20
2019-04-04T13:34:03.110Z,6.03
2019-04-04T13:36:32.816Z,7.23
2019-04-04T13:39:02.155Z,7.20
2019-04-04T13:41:31.538Z,5.43
2019-04-04T13:44:00.920Z,11.47
2019-04-04T13:46:34.977Z,7.47
2019-04-04T13:49:04.576Z,5.93
2019-04-04T13:51:34.931Z,5.37
2019-04-04T13:54:04.299Z,9.60
2019-04-04T13:56:33.679Z,10.03
2019-04-04T13:59:05.773Z,5.83
2019-04-04T14:01:34.273Z,5.60
2019-04-04T14:04:03.614Z,5.20
2019-04-04T14:06:33.004Z,5.10
2019-04-04T14:09:02.363Z,5.90
2019-04-04T14:11:33.512Z,5.58
2019-04-04T14:14:03.307Z,5.00
2019-04-04T14:16:32.676Z,5.47
2019-04-04T14:19:02.032Z,4.90
2019-04-04T14:21:31.568Z,6.13
2019-04-04T14:24:12.335Z,5.43
2019-04-04T14:26:32.113Z,8.87
2019-04-04T14:29:03.777Z,5.70
2019-04-04T14:31:33.264Z,6.17
2019-04-04T14:34:02.621Z,9.87
2019-04-04T14:36:35.412Z,6.10
2019-04-04T14:39:07.693Z,5.50
2019-04-04T14:41:37.109Z,9.10
2019-04-04T14:44:09.516Z,5.73
2019-04-04T14:46:39.223Z,6.37
2019-04-04T14:49:09.318Z,6.07
2019-04-04T14:51:39.425Z,6.55
2019-04-04T14:54:08.780Z,5.50
2019-04-04T14:56:38.140Z,6.70
2019-04-04T14:59:07.525Z,6.67
2019-04-04T15:01:36.883Z,7.30
2019-04-04T15:04:06.253Z,7.10
2019-04-04T15:06:35.673Z,14.63
2019-04-04T15:09:09.708Z,6.17
2019-04-04T15:11:39.167Z,8.63
2019-04-04T15:14:09.303Z,6.63
2019-04-04T15:16:38.673Z,8.57
2019-04-04T15:19:08.022Z,7.60
2019-04-04T15:21:37.398Z,7.43
2019-04-04T15:24:06.747Z,7.10
2019-04-04T15:26:36.105Z,7.57
2019-04-04T15:29:08.103Z,7.03
2019-04-04T15:31:37.759Z,5.77
2019-04-04T15:34:07.110Z,5.87
2019-04-04T15:36:36.541Z,7.53
2019-04-04T15:39:08.886Z,8.33
2019-04-04T15:41:38.255Z,6.20
2019-04-04T15:44:07.643Z,12.83
2019-04-04T15:46:37.350Z,5.70
2019-04-04T15:49:09.688Z,5.53
2019-04-04T15:51:39.514Z,6.90
2019-04-04T15:54:08.891Z,9.53
2019-04-04T15:56:38.893Z,8.50
2019-04-04T15:59:08.314Z,7.37
2019-04-04T16:01:37.678Z,9.03
2019-04-04T16:04:07.027Z,6.90
2019-04-04T16:06:36.393Z,5.93
2019-04-04T16:09:07.924Z,7.03
2019-04-04T16:11:48.802Z,7.20
2019-04-04T16:14:08.438Z,6.20
2019-04-04T16:16:37.872Z,6.75
2019-04-04T16:19:07.242Z,7.07
2019-04-04T16:21:36.703Z,7.73
2019-04-04T16:24:06.292Z,8.07
2019-04-04T16:26:35.653Z,9.65
2019-04-04T16:29:05.366Z,8.33
2019-04-04T16:31:34.791Z,9.35
2019-04-04T16:34:04.339Z,10.20
2019-04-04T16:36:34.329Z,9.13
2019-04-04T16:39:05.891Z,9.00
2019-04-04T16:41:35.248Z,9.70
2019-04-04T16:44:05.722Z,8.33
2019-04-04T16:46:35.907Z,8.80
2019-04-04T16:49:05.694Z,8.37
2019-04-04T16:51:35.098Z,11.30
2019-04-04T16:54:04.576Z,8.73
2019-04-04T16:56:33.945Z,9.50
2019-04-04T16:59:03.400Z,8.50
2019-04-04T17:01:32.891Z,10.20
2019-04-04T17:04:02.350Z,8.60
2019-04-04T17:06:34.780Z,8.47
2019-04-04T17:09:05.813Z,8.67
2019-04-04T17:11:35.169Z,8.13
2019-04-04T17:14:04.810Z,9.33
2019-04-04T17:16:34.162Z,7.67
2019-04-04T17:19:07.356Z,9.77
2019-04-04T17:21:36.746Z,7.67
2019-04-04T17:24:06.159Z,9.60
2019-04-04T17:26:36.269Z,8.70
2019-04-04T17:29:06.440Z,8.00
2019-04-04T17:31:35.806Z,7.90
2019-04-04T17:34:05.522Z,7.90
2019-04-04T17:36:35.170Z,8.60
2019-04-04T17:39:07.381Z,8.50
2019-04-04T17:41:36.997Z,10.18
2019-04-04T17:44:06.716Z,8.30
2019-04-04T17:46:36.057Z,8.07
2019-04-04T17:49:05.605Z,8.03
2019-04-04T17:51:36.617Z,8.57
2019-04-04T17:54:06.064Z,8.03
2019-04-04T17:56:35.384Z,7.57
2019-04-04T17:59:04.826Z,8.20
2019-04-04T18:01:34.424Z,8.03
2019-04-04T18:04:03.974Z,8.03
2019-04-04T18:06:33.348Z,8.93
2019-04-04T18:09:09.314Z,7.30
2019-04-04T18:11:39.477Z,7.20
2019-04-04T18:14:08.801Z,8.67
2019-04-04T18:16:38.159Z,9.03
2019-04-04T18:19:07.538Z,8.30
2019-04-04T18:21:36.908Z,8.90
2019-04-04T18:24:06.283Z,10.27
2019-04-04T18:26:35.689Z,9.50
2019-04-04T18:29:05.103Z,8.80
2019-04-04T18:31:34.446Z,8.23
2019-04-04T18:34:07.173Z,14.20
2019-04-04T18:36:35.940Z,9.40
2019-04-04T18:39:08.402Z,9.47
2019-04-04T18:41:37.761Z,9.70
2019-04-04T18:44:07.108Z,7.00
2019-04-04T18:46:36.469Z,10.27
2019-04-04T18:49:06.911Z,10.30
2019-04-04T18:51:37.677Z,7.10
2019-04-04T18:54:08.684Z,11.97
2019-04-04T18:56:38.054Z,9.77
2019-04-04T18:59:07.402Z,10.97
2019-04-04T19:01:36.747Z,10.80
2019-04-04T19:04:06.195Z,11.03
2019-04-04T19:06:35.560Z,10.87
2019-04-04T19:09:15.118Z,9.23
2019-04-04T19:11:42.193Z,11.00
2019-04-04T19:14:11.542Z,11.50
2019-04-04T19:16:41.010Z,10.77
2019-04-04T19:19:10.495Z,12.10
2019-04-04T19:21:40.079Z,12.27
2019-04-04T19:24:09.847Z,14.37
2019-04-04T19:26:39.262Z,14.20
2019-04-04T19:29:08.674Z,14.97
2019-04-04T19:31:38.212Z,17.37
2019-04-04T19:34:08.310Z,14.07
2019-04-04T19:36:37.657Z,11.37
2019-04-04T19:39:10.278Z,12.67
2019-04-04T19:41:39.664Z,12.90
2019-04-04T19:44:09.088Z,14.07
2019-04-04T19:46:38.448Z,14.10
2019-04-04T19:49:07.820Z,13.93
2019-04-04T19:51:37.184Z,13.97
2019-04-04T19:54:07.214Z,13.70
2019-04-04T19:56:38.162Z,15.67
2019-04-04T19:59:07.543Z,15.50
2019-04-04T20:01:36.894Z,15.30
2019-04-04T20:04:06.936Z,14.83
2019-04-04T20:06:36.326Z,15.30
2019-04-04T20:09:07.661Z,11.67
2019-04-04T20:11:37.091Z,14.40
2019-04-04T20:14:06.512Z,18.07
2019-04-04T20:16:37.402Z,15.40
2019-04-04T20:19:06.853Z,11.60
2019-04-04T20:21:36.275Z,16.30
2019-04-04T20:24:06.099Z,18.10
2019-04-04T20:26:35.473Z,16.37
2019-04-04T20:29:04.899Z,17.87
2019-04-04T20:31:34.927Z,16.77
2019-04-04T20:34:05.917Z,18.20
2019-04-04T20:36:35.459Z,15.57
2019-04-04T20:39:07.935Z,16.67
2019-04-04T20:41:38.070Z,20.67
2019-04-04T20:44:07.428Z,20.57
2019-04-04T20:46:36.877Z,18.23
2019-04-04T20:49:06.924Z,16.27
2019-04-04T20:51:36.279Z,20.20
2019-04-04T20:54:05.647Z,19.93
2019-04-04T20:56:35.037Z,22.53
2019-04-04T20:59:05.464Z,14.97
2019-04-04T21:01:34.804Z,18.80
2019-04-04T21:04:04.666Z,20.33
2019-04-04T21:06:34.094Z,22.47
2019-04-04T21:09:04.604Z,18.77
2019-04-04T21:11:33.985Z,21.77
2019-04-04T21:14:03.344Z,23.07
2019-04-04T21:16:32.702Z,21.70
2019-04-04T21:19:02.081Z,20.93
2019-04-04T21:21:31.465Z,21.17
2019-04-04T21:24:00.815Z,15.50
2019-04-04T21:26:30.220Z,21.17
2019-04-04T21:28:59.636Z,21.77
2019-04-04T21:31:28.946Z,21.20
2019-04-04T21:33:58.335Z,16.67
2019-04-04T21:36:27.690Z,21.45
2019-04-04T21:38:57.048Z,21.83
2019-04-04T21:41:26.429Z,20.60
2019-04-04T21:44:07.937Z,21.97
2019-04-04T21:46:26.894Z,17.80
2019-04-04T21:48:56.634Z,22.00
2019-04-04T21:51:26.030Z,23.80
2019-04-04T21:53:55.449Z,17.20
2019-04-04T21:56:24.843Z,21.03
2019-04-04T21:58:54.201Z,18.67
2019-04-04T22:01:26.744Z,18.67
2019-04-04T22:03:56.087Z,23.57
2019-04-04T22:06:25.455Z,24.57
2019-04-04T22:08:54.811Z,24.50
2019-04-04T22:11:24.966Z,25.70
2019-04-04T22:13:54.322Z,19.83
2019-04-04T22:16:23.686Z,24.80
2019-04-04T22:18:53.063Z,26.37
2019-04-04T22:21:22.422Z,24.40
2019-04-04T22:23:51.787Z,23.77
2019-04-04T22:26:21.184Z,21.50
2019-04-04T22:28:50.533Z,24.00
2019-04-04T22:31:19.877Z,21.70
2019-04-04T22:33:49.667Z,18.97
2019-04-04T22:36:19.031Z,24.43
2019-04-04T22:38:48.390Z,23.23
2019-04-04T22:41:17.758Z,22.17
2019-04-04T22:43:47.788Z,23.13
2019-04-04T22:46:17.158Z,26.23
2019-04-04T22:48:46.563Z,18.50
2019-04-04T22:51:16.611Z,25.00
2019-04-04T22:53:45.972Z,20.93
2019-04-04T22:56:15.827Z,24.37
2019-04-04T22:58:45.200Z,22.50
2019-04-04T23:01:14.615Z,22.57
2019-04-04T23:03:44.797Z,20.03
2019-04-04T23:06:14.152Z,23.87
2019-04-04T23:08:43.515Z,25.40
2019-04-04T23:11:12.897Z,21.57
2019-04-04T23:13:42.235Z,23.33
2019-04-04T23:16:14.280Z,23.37
2019-04-04T23:18:44.309Z,24.17
2019-04-04T23:21:13.736Z,19.23
2019-04-04T23:23:43.080Z,24.57
2019-04-04T23:26:12.489Z,25.57
2019-04-04T23:28:41.851Z,23.40
2019-04-04T23:31:11.194Z,24.87
2019-04-04T23:33:40.555Z,26.33
2019-04-04T23:36:09.937Z,24.13
2019-04-04T23:38:39.278Z,24.30
2019-04-04T23:41:09.007Z,25.00
2019-04-04T23:43:38.359Z,20.37
2019-04-04T23:46:07.712Z,20.37
2019-04-04T23:48:38.609Z,26.37
2019-04-04T23:51:07.955Z,25.00
2019-04-04T23:53:37.303Z,20.97
2019-04-04T23:56:06.669Z,23.27
2019-04-04T23:58:36.025Z,24.00
